Time;durP1;ratioP1;P1;durP2;ratioP2;P2;SDS_P1;SDS_P2;PMS_P1;PMS_P2;Temp;Humidity;BMP_temperature;BMP_pressure;BME280_temperature;BME280_humidity;BME280_pressure;Samples;Min_cycle;Max_cycle;Signal;HPM_P1;HPM_P2
2023/03/15 00:01:25;;;;;;;1.10;1.00;;;3.70;98.00;;;;;;5053506;28;20663;-67
2023/03/15 00:03:53;;;;;;;1.30;1.10;;;3.70;98.00;;;;;;5053001;28;20491;-67
2023/03/15 00:06:21;;;;;;;3.03;1.37;;;3.70;98.00;;;;;;5052938;28;21019;-67
2023/03/15 00:08:48;;;;;;;1.47;1.40;;;3.60;98.00;;;;;;5053010;28;20462;-67
2023/03/15 00:11:16;;;;;;;6.30;1.43;;;3.70;98.00;;;;;;5052984;28;20883;-67
2023/03/15 00:13:46;;;;;;;1.10;1.10;;;3.70;98.00;;;;;;5053049;28;20455;-68
2023/03/15 00:16:16;;;;;;;1.10;1.10;;;3.60;98.00;;;;;;5052804;28;20466;-67
2023/03/15 00:18:43;;;;;;;2.80;1.37;;;3.60;98.00;;;;;;5052982;28;20470;-67
2023/03/15 00:21:11;;;;;;;1.27;1.10;;;3.70;98.00;;;;;;5052905;28;20516;-67
2023/03/15 00:23:38;;;;;;;1.30;1.30;;;3.80;98.00;;;;;;5052639;28;20895;-67
2023/03/15 00:26:06;;;;;;;1.30;1.30;;;3.80;98.00;;;;;;5035618;28;20450;-67
2023/03/15 00:28:33;;;;;;;1.27;1.10;;;3.80;98.00;;;;;;5053591;28;20458;-67
2023/03/15 00:31:08;;;;;;;1.20;1.00;;;3.70;98.00;;;;;;5052951;28;21027;-67
2023/03/15 00:33:35;;;;;;;3.07;1.90;;;3.80;98.00;;;;;;5053878;28;20460;-67
2023/03/15 00:36:06;;;;;;;3.10;1.43;;;3.80;98.00;;;;;;5052499;28;20960;-67
2023/03/15 00:38:33;;;;;;;1.30;1.20;;;3.80;98.00;;;;;;5052546;28;20466;-67
2023/03/15 00:41:05;;;;;;;1.53;1.27;;;3.80;98.00;;;;;;5052368;28;20889;-67
2023/03/15 00:43:33;;;;;;;1.83;1.53;;;3.80;98.00;;;;;;5052484;28;20581;-67
2023/03/15 00:46:00;;;;;;;1.40;1.40;;;3.70;98.00;;;;;;5034562;28;20464;-67
2023/03/15 00:48:28;;;;;;;4.53;1.70;;;3.80;98.00;;;;;;5052337;28;20988;-67
2023/03/15 00:51:03;;;;;;;1.40;1.30;;;3.70;98.00;;;;;;5052276;28;20968;-67
2023/03/15 00:53:30;;;;;;;1.57;1.30;;;3.80;98.00;;;;;;5052478;28;20540;-67
2023/03/15 00:55:57;;;;;;;3.57;1.80;;;3.70;98.00;;;;;;5034438;28;20463;-67
2023/03/15 00:58:25;;;;;;;1.70;1.67;;;3.70;98.00;;;;;;5052425;28;20942;-67
2023/03/15 01:00:52;;;;;;;2.73;2.07;;;3.80;98.00;;;;;;5049794;28;20515;-67
2023/03/15 01:03:19;;;;;;;1.47;1.43;;;3.80;98.00;;;;;;5051962;28;20539;-67
2023/03/15 01:05:48;;;;;;;1.70;1.70;;;3.90;98.00;;;;;;5052132;28;20462;-67
2023/03/15 01:08:15;;;;;;;4.27;1.60;;;3.90;98.00;;;;;;5051820;28;20513;-67
2023/03/15 01:10:43;;;;;;;1.93;1.40;;;3.90;98.00;;;;;;5051736;28;20466;-67
2023/03/15 01:13:10;;;;;;;1.63;1.53;;;4.00;98.00;;;;;;5051744;28;20536;-67
2023/03/15 01:15:37;;;;;;;1.40;1.33;;;3.90;98.00;;;;;;5033879;28;20454;-67
2023/03/15 01:18:04;;;;;;;2.03;1.50;;;3.70;98.00;;;;;;5051844;28;20454;-67
2023/03/15 01:20:31;;;;;;;2.13;1.50;;;3.40;98.00;;;;;;5051711;28;20466;-67
2023/03/15 01:22:59;;;;;;;3.00;1.90;;;3.40;98.00;;;;;;5051405;28;20478;-67
2023/03/15 01:25:26;;;;;;;4.00;1.97;;;3.20;98.00;;;;;;5051683;28;20458;-67
2023/03/15 01:27:53;;;;;;;2.13;1.50;;;3.20;98.00;;;;;;5051423;28;20463;-66
2023/03/15 01:30:21;;;;;;;4.50;2.03;;;3.30;98.00;;;;;;5051407;28;20519;-67
2023/03/15 01:32:48;;;;;;;2.30;1.50;;;3.20;98.00;;;;;;5051570;28;20465;-67
2023/03/15 01:35:15;;;;;;;2.83;1.50;;;3.20;98.00;;;;;;5051429;28;20453;-67
2023/03/15 01:37:44;;;;;;;2.40;1.87;;;3.20;98.00;;;;;;5033756;28;20884;-67
2023/03/15 01:40:14;;;;;;;3.23;1.83;;;3.20;98.00;;;;;;5051488;28;20508;-67
2023/03/15 01:43:12;;;;;;;1.20;1.10;;;3.20;98.00;;;;;;5051219;28;20900;-67
2023/03/15 01:46:07;;;;;;;1.80;1.60;;;3.20;98.00;;;;;;5033770;28;20502;-67
2023/03/15 01:48:43;;;;;;;2.57;1.70;;;3.10;98.00;;;;;;5051498;28;20465;-67
2023/03/15 01:51:16;;;;;;;1.57;1.10;;;3.10;98.00;;;;;;5051494;28;20541;-67
2023/03/15 01:53:49;;;;;;;2.80;1.53;;;3.30;98.00;;;;;;5051396;28;20460;-67
2023/03/15 01:56:18;;;;;;;1.87;1.47;;;3.40;98.00;;;;;;5051150;28;20460;-67
2023/03/15 01:58:47;;;;;;;3.67;2.30;;;3.40;98.00;;;;;;5050640;28;20454;-67
2023/03/15 02:01:15;;;;;;;2.33;1.53;;;3.30;98.00;;;;;;5051119;28;20453;-67
2023/03/15 02:03:46;;;;;;;2.03;1.87;;;3.40;98.00;;;;;;5051001;28;20536;-67
2023/03/15 02:06:17;;;;;;;5.00;2.00;;;3.50;98.00;;;;;;5051168;28;20955;-67
2023/03/15 02:08:50;;;;;;;2.77;2.20;;;3.50;98.00;;;;;;5051099;28;20451;-67
2023/03/15 02:11:27;;;;;;;2.20;1.50;;;3.50;98.00;;;;;;5051139;28;20487;-67
2023/03/15 02:13:57;;;;;;;2.90;2.43;;;3.60;98.00;;;;;;5051026;28;20918;-67
2023/03/15 02:16:25;;;;;;;3.00;2.20;;;3.70;98.00;;;;;;5050719;28;20468;-67
2023/03/15 02:18:52;;;;;;;2.50;1.87;;;3.70;98.00;;;;;;5051115;28;20870;-67
2023/03/15 02:21:35;;;;;;;2.53;1.80;;;3.70;98.00;;;;;;5051315;28;20466;-67
2023/03/15 02:24:16;;;;;;;3.20;2.13;;;3.70;98.00;;;;;;5051364;28;20576;-67
2023/03/15 02:26:50;;;;;;;3.00;1.83;;;3.60;98.00;;;;;;5050832;28;20463;-67
2023/03/15 02:29:18;;;;;;;2.33;1.50;;;3.60;98.00;;;;;;5051186;28;20538;-67
2023/03/15 02:31:46;;;;;;;2.07;1.80;;;3.60;98.00;;;;;;5050748;28;20463;-67
2023/03/15 02:34:15;;;;;;;1.53;1.43;;;3.70;98.00;;;;;;5050989;28;20455;-67
2023/03/15 02:36:42;;;;;;;5.37;3.03;;;3.70;98.00;;;;;;5050756;28;20876;-67
2023/03/15 02:39:18;;;;;;;1.80;1.50;;;3.50;98.00;;;;;;5050949;28;20462;-67
2023/03/15 02:41:49;;;;;;;1.67;1.23;;;3.60;98.00;;;;;;5050636;28;20459;-67
2023/03/15 02:44:21;;;;;;;4.13;1.97;;;3.60;98.00;;;;;;5050629;28;20491;-67
2023/03/15 02:46:51;;;;;;;2.13;1.77;;;3.70;98.00;;;;;;5050762;28;20525;-67
2023/03/15 02:49:21;;;;;;;2.30;1.60;;;3.60;98.00;;;;;;5016745;28;20948;-67
2023/03/15 02:51:49;;;;;;;2.07;1.57;;;3.70;98.00;;;;;;5050831;28;20478;-67
2023/03/15 02:54:16;;;;;;;2.50;1.70;;;3.60;98.00;;;;;;5016958;28;20763;-67
2023/03/15 02:56:44;;;;;;;3.30;1.97;;;3.50;98.00;;;;;;5050473;28;20462;-67
2023/03/15 02:59:12;;;;;;;3.23;2.13;;;3.50;98.00;;;;;;5033318;28;20868;-67
2023/03/15 03:01:40;;;;;;;3.00;1.87;;;3.50;98.00;;;;;;5050407;28;20492;-67
2023/03/15 03:04:07;;;;;;;1.50;1.30;;;3.60;98.00;;;;;;5050465;28;20495;-67
2023/03/15 03:06:34;;;;;;;1.80;1.50;;;3.40;98.00;;;;;;5032887;28;20525;-67
2023/03/15 03:09:02;;;;;;;1.30;1.23;;;3.40;98.00;;;;;;5050375;28;20597;-67
2023/03/15 03:11:29;;;;;;;3.50;1.90;;;3.40;98.00;;;;;;5053635;28;20455;-67
2023/03/15 03:13:56;;;;;;;1.60;1.53;;;3.30;98.00;;;;;;5054055;28;20455;-67
2023/03/15 03:16:23;;;;;;;1.30;1.10;;;3.30;98.00;;;;;;5054081;28;20477;-67
2023/03/15 03:18:51;;;;;;;1.53;1.53;;;3.30;98.00;;;;;;5053896;28;20463;-67
2023/03/15 03:21:19;;;;;;;1.47;1.40;;;3.30;98.00;;;;;;5053994;28;20808;-67
2023/03/15 03:23:46;;;;;;;2.90;1.30;;;3.20;98.00;;;;;;5053919;28;20977;-67
2023/03/15 03:26:15;;;;;;;2.30;1.40;;;3.20;98.00;;;;;;5053687;28;20455;-67
2023/03/15 03:28:44;;;;;;;2.30;1.63;;;3.10;98.00;;;;;;5053802;28;20457;-67
2023/03/15 03:31:23;;;;;;;1.70;1.47;;;3.10;98.00;;;;;;5053738;28;20817;-67
2023/03/15 03:33:51;;;;;;;2.77;1.40;;;3.10;98.00;;;;;;5053738;28;20464;-67
2023/03/15 03:36:23;;;;;;;2.90;1.43;;;3.00;98.00;;;;;;5053563;28;21009;-67
2023/03/15 03:38:51;;;;;;;2.00;1.63;;;3.10;98.00;;;;;;5036687;28;20572;-67
2023/03/15 03:41:18;;;;;;;2.70;1.67;;;3.10;98.00;;;;;;5053516;28;20493;-67
2023/03/15 03:43:45;;;;;;;2.77;1.47;;;3.20;98.00;;;;;;5053687;28;20491;-67
2023/03/15 03:46:12;;;;;;;2.33;1.83;;;3.10;98.00;;;;;;5053668;28;20461;-67
2023/03/15 03:48:40;;;;;;;2.60;1.20;;;2.90;98.00;;;;;;5053731;28;20455;-67
2023/03/15 03:51:08;;;;;;;1.60;1.30;;;3.10;98.00;;;;;;5035907;28;20970;-67
2023/03/15 03:53:35;;;;;;;2.33;1.53;;;3.10;98.00;;;;;;5053696;28;20858;-67
2023/03/15 03:56:05;;;;;;;1.93;1.30;;;3.00;98.00;;;;;;5053200;28;20963;-67
2023/03/15 03:58:33;;;;;;;1.20;1.07;;;3.00;98.00;;;;;;5053402;28;20459;-67
2023/03/15 04:01:00;;;;;;;3.33;1.30;;;3.00;98.00;;;;;;5035419;28;20447;-67
2023/03/15 04:03:27;;;;;;;1.63;1.07;;;3.10;98.00;;;;;;5035564;28;20594;-67
2023/03/15 04:05:55;;;;;;;1.97;1.37;;;3.20;98.00;;;;;;5053079;28;20960;-67
2023/03/15 04:08:24;;;;;;;1.50;1.30;;;3.20;98.00;;;;;;5053022;28;20479;-67
2023/03/15 04:10:52;;;;;;;1.20;1.00;;;3.20;98.00;;;;;;5052900;28;20455;-67
2023/03/15 04:13:21;;;;;;;1.57;1.30;;;3.20;98.00;;;;;;5053101;28;20495;-67
2023/03/15 04:15:49;;;;;;;2.60;1.40;;;3.20;98.00;;;;;;5052848;28;20471;-67
2023/03/15 04:18:16;;;;;;;1.10;1.10;;;3.10;98.00;;;;;;5053028;28;20480;-67
2023/03/15 04:20:45;;;;;;;1.20;1.10;;;3.10;98.00;;;;;;5034660;28;20446;-67
2023/03/15 04:23:13;;;;;;;1.40;1.10;;;3.20;98.00;;;;;;5052819;28;20459;-67
2023/03/15 04:25:42;;;;;;;1.20;1.10;;;3.30;98.00;;;;;;5052547;28;20852;-67
2023/03/15 04:28:10;;;;;;;1.10;1.10;;;3.20;98.00;;;;;;5052828;28;20937;-67
2023/03/15 04:30:38;;;;;;;1.20;1.10;;;3.10;98.00;;;;;;5035119;28;20551;-67
2023/03/15 04:33:05;;;;;;;1.60;1.40;;;3.00;98.00;;;;;;5052489;28;21030;-67
2023/03/15 04:35:34;;;;;;;2.30;1.43;;;3.10;98.00;;;;;;5052738;28;20795;-67
2023/03/15 04:38:02;;;;;;;4.97;1.47;;;3.00;98.00;;;;;;5052689;28;20463;-67
2023/03/15 04:40:33;;;;;;;1.50;1.30;;;3.10;98.00;;;;;;5052465;28;20469;-67
2023/03/15 04:43:04;;;;;;;2.60;1.57;;;3.10;98.00;;;;;;5052704;28;20450;-67
2023/03/15 04:45:32;;;;;;;15.47;1.60;;;3.20;98.00;;;;;;5052782;28;20488;-67
2023/03/15 04:48:00;;;;;;;4.13;1.33;;;3.20;98.00;;;;;;5052402;28;20982;-67
2023/03/15 04:50:28;;;;;;;2.87;1.40;;;3.10;98.00;;;;;;5052678;28;20460;-67
2023/03/15 04:52:57;;;;;;;2.40;1.20;;;3.00;98.00;;;;;;5052469;28;20467;-67
2023/03/15 04:55:26;;;;;;;1.20;1.13;;;2.80;98.00;;;;;;5052531;28;20883;-67
2023/03/15 04:57:53;;;;;;;1.20;1.10;;;2.70;98.00;;;;;;5052105;28;20516;-67
2023/03/15 05:00:22;;;;;;;1.30;1.30;;;2.70;98.00;;;;;;5051992;28;20465;-67
2023/03/15 05:02:53;;;;;;;1.80;1.50;;;2.50;98.00;;;;;;5052082;28;20463;-67
2023/03/15 05:05:21;;;;;;;1.80;1.37;;;2.60;98.00;;;;;;5052327;28;20489;-67
2023/03/15 05:07:48;;;;;;;1.30;1.27;;;2.60;98.00;;;;;;5051916;28;20543;-67
2023/03/15 05:10:15;;;;;;;1.93;1.40;;;2.40;98.00;;;;;;5051898;28;20458;-67
2023/03/15 05:12:42;;;;;;;2.17;1.50;;;2.50;98.00;;;;;;5052059;28;20547;-67
2023/03/15 05:15:10;;;;;;;6.10;1.10;;;2.40;98.00;;;;;;5051794;28;20874;-67
2023/03/15 05:17:39;;;;;;;17.43;1.87;;;2.40;98.00;;;;;;5051813;28;20769;-67
2023/03/15 05:20:10;;;;;;;2.57;1.20;;;2.50;98.00;;;;;;5051528;28;21050;-67
2023/03/15 05:22:38;;;;;;;9.83;1.30;;;2.50;98.00;;;;;;5051661;28;20463;-67
2023/03/15 05:25:06;;;;;;;1.50;1.20;;;2.60;98.00;;;;;;5051412;28;20510;-67
2023/03/15 05:27:34;;;;;;;1.73;1.43;;;2.40;98.00;;;;;;5051970;28;20682;-67
2023/03/15 05:30:03;;;;;;;2.37;1.50;;;2.20;98.00;;;;;;5051628;28;20456;-67
2023/03/15 05:32:33;;;;;;;1.50;1.30;;;2.10;98.00;;;;;;5050697;28;20466;-67
2023/03/15 05:35:07;;;;;;;2.10;1.50;;;2.10;98.00;;;;;;5034279;28;20455;-67
2023/03/15 05:37:34;;;;;;;1.30;1.20;;;1.90;98.00;;;;;;5033584;28;20826;-67
2023/03/15 05:40:02;;;;;;;1.60;1.30;;;1.90;98.00;;;;;;5051578;28;20803;-67
2023/03/15 05:42:29;;;;;;;4.80;2.20;;;1.90;98.00;;;;;;5051390;28;20468;-67
2023/03/15 05:44:57;;;;;;;1.23;1.20;;;1.90;98.00;;;;;;5033629;28;21014;-67
2023/03/15 05:47:24;;;;;;;1.73;1.50;;;1.90;98.00;;;;;;5051650;28;20495;-67
2023/03/15 05:49:52;;;;;;;1.33;1.30;;;1.80;98.00;;;;;;5033562;28;20459;-67
2023/03/15 05:52:21;;;;;;;2.47;1.53;;;1.70;98.00;;;;;;5033773;28;20528;-67
2023/03/15 05:54:48;;;;;;;2.63;1.57;;;1.60;98.00;;;;;;5033566;28;20474;-67
2023/03/15 05:57:15;;;;;;;4.80;1.17;;;1.60;98.00;;;;;;5051430;28;20934;-67
2023/03/15 05:59:42;;;;;;;1.20;1.10;;;1.60;98.00;;;;;;5033694;28;20469;-67
2023/03/15 06:02:10;;;;;;;1.20;1.17;;;1.70;98.00;;;;;;5033457;28;20458;-67
2023/03/15 06:04:37;;;;;;;8.13;2.50;;;1.80;98.00;;;;;;5051190;28;20483;-67
2023/03/15 06:07:05;;;;;;;1.50;1.17;;;1.70;98.00;;;;;;5052400;28;20791;-67
2023/03/15 06:09:33;;;;;;;1.20;1.13;;;1.60;98.00;;;;;;5051409;28;20490;-67
2023/03/15 06:12:00;;;;;;;1.10;1.10;;;1.60;98.00;;;;;;5052219;28;20461;-67
2023/03/15 06:14:29;;;;;;;3.00;1.73;;;1.70;98.00;;;;;;5051549;28;20485;-67
2023/03/15 06:16:56;;;;;;;1.67;1.40;;;1.70;98.00;;;;;;5050928;28;20462;-67
2023/03/15 06:19:24;;;;;;;1.30;1.20;;;1.80;98.00;;;;;;5033722;28;20480;-67
2023/03/15 06:21:51;;;;;;;1.20;1.13;;;1.90;98.00;;;;;;5017117;28;20457;-67
2023/03/15 06:24:18;;;;;;;1.20;1.10;;;1.90;98.00;;;;;;5050926;28;20580;-67
2023/03/15 06:26:46;;;;;;;2.40;1.63;;;1.90;98.00;;;;;;5050995;28;20487;-67
2023/03/15 06:29:14;;;;;;;1.97;1.23;;;1.90;98.00;;;;;;5050971;28;20465;-67
2023/03/15 06:31:41;;;;;;;1.90;1.37;;;1.90;98.00;;;;;;5033280;28;20526;-67
2023/03/15 06:34:08;;;;;;;3.40;1.40;;;2.00;98.00;;;;;;5050739;28;20460;-67
2023/03/15 06:36:35;;;;;;;1.97;1.20;;;2.00;98.00;;;;;;5050756;28;20807;-67
2023/03/15 06:39:04;;;;;;;1.70;1.60;;;2.00;98.00;;;;;;5051332;28;20470;-67
2023/03/15 06:41:32;;;;;;;2.70;1.57;;;2.00;98.00;;;;;;5050693;28;20973;-67
2023/03/15 06:44:01;;;;;;;2.00;1.60;;;2.00;98.00;;;;;;5051796;28;20551;-67
2023/03/15 06:46:28;;;;;;;3.10;1.70;;;2.00;98.00;;;;;;5054886;28;20822;-67
2023/03/15 06:48:55;;;;;;;4.77;1.80;;;2.10;98.00;;;;;;5054540;28;20471;-67
2023/03/15 06:51:22;;;;;;;7.57;2.43;;;2.00;98.00;;;;;;5054558;28;20463;-67
2023/03/15 06:53:49;;;;;;;3.77;1.87;;;2.10;98.00;;;;;;5054469;28;20461;-68
2023/03/15 06:56:16;;;;;;;2.10;1.67;;;2.20;98.00;;;;;;5054275;28;20555;-67
2023/03/15 06:58:53;;;;;;;1.63;1.30;;;2.20;98.00;;;;;;5036618;28;20953;-67
2023/03/15 07:01:22;;;;;;;3.00;1.77;;;2.30;98.00;;;;;;5054268;28;20457;-64
2023/03/15 07:03:49;;;;;;;1.80;1.70;;;2.40;98.00;;;;;;5036635;28;20751;-63
2023/03/15 07:06:16;;;;;;;2.53;1.70;;;2.50;98.00;;;;;;5054514;28;21042;-64
2023/03/15 07:08:43;;;;;;;1.53;1.33;;;2.60;98.00;;;;;;5054462;28;20472;-63
2023/03/15 07:11:10;;;;;;;1.70;1.57;;;2.70;98.00;;;;;;5036807;28;20455;-63
2023/03/15 07:13:37;;;;;;;2.10;1.43;;;2.70;98.00;;;;;;5054598;28;20470;-65
2023/03/15 07:16:05;;;;;;;2.07;1.93;;;2.80;98.00;;;;;;5053912;28;20892;-64
2023/03/15 07:18:34;;;;;;;1.60;1.30;;;2.90;98.00;;;;;;5036508;28;20556;-64
2023/03/15 07:21:02;;;;;;;1.30;1.27;;;2.90;98.00;;;;;;5054342;28;20953;-66
2023/03/15 07:23:30;;;;;;;2.13;1.60;;;2.90;98.00;;;;;;5054228;28;20539;-64
2023/03/15 07:25:58;;;;;;;1.20;1.10;;;2.90;98.00;;;;;;5053797;28;20524;-65
2023/03/15 07:28:27;;;;;;;1.57;1.43;;;2.90;98.00;;;;;;5036474;28;20457;-65
2023/03/15 07:30:55;;;;;;;1.73;1.60;;;2.90;98.00;;;;;;5036377;28;21025;-63
2023/03/15 07:33:23;;;;;;;2.30;1.43;;;2.90;98.00;;;;;;5053737;28;20508;-65
2023/03/15 07:35:52;;;;;;;1.73;1.20;;;3.00;98.00;;;;;;5053677;28;20454;-64
2023/03/15 07:38:20;;;;;;;1.80;1.77;;;3.00;98.00;;;;;;5053550;28;20458;-63
2023/03/15 07:40:47;;;;;;;2.03;1.40;;;3.10;98.00;;;;;;5053848;28;20950;-64
2023/03/15 07:43:14;;;;;;;2.40;1.30;;;3.30;98.00;;;;;;5044502;28;20475;-63
2023/03/15 07:45:41;;;;;;;1.33;1.30;;;3.30;98.00;;;;;;5033704;28;20540;-64
2023/03/15 07:48:09;;;;;;;1.50;1.40;;;3.40;98.00;;;;;;5033730;28;20467;-65
2023/03/15 07:50:36;;;;;;;1.73;1.67;;;3.50;98.00;;;;;;5033541;28;20954;-64
2023/03/15 07:53:05;;;;;;;6.23;2.23;;;3.50;98.00;;;;;;5033598;28;20521;-65
2023/03/15 07:55:33;;;;;;;1.83;1.37;;;3.60;98.00;;;;;;5032611;28;21011;-63
2023/03/15 07:58:01;;;;;;;2.27;1.57;;;3.70;98.00;;;;;;5033077;28;20456;-62
2023/03/15 08:00:29;;;;;;;1.77;1.47;;;3.70;98.00;;;;;;5033351;28;20456;-63
2023/03/15 08:02:56;;;;;;;1.53;1.23;;;3.80;98.00;;;;;;5033192;28;20465;-64
2023/03/15 08:05:24;;;;;;;1.20;1.20;;;3.90;98.00;;;;;;5033341;28;20525;-65
2023/03/15 08:07:52;;;;;;;2.83;1.80;;;4.10;98.00;;;;;;5033355;28;20463;-64
2023/03/15 08:10:20;;;;;;;1.93;1.73;;;4.00;98.00;;;;;;5033450;28;20831;-63
2023/03/15 08:12:48;;;;;;;1.77;1.60;;;4.10;98.00;;;;;;5033023;28;20954;-65
2023/03/15 08:15:16;;;;;;;2.93;2.03;;;4.20;98.00;;;;;;5032533;28;20477;-64
2023/03/15 08:17:43;;;;;;;3.60;1.50;;;4.30;98.00;;;;;;5033341;28;20460;-65
2023/03/15 08:20:13;;;;;;;1.40;1.33;;;4.40;98.00;;;;;;5032848;28;20472;-64
2023/03/15 08:22:43;;;;;;;1.50;1.40;;;4.50;98.00;;;;;;5031831;28;20473;-65
2023/03/15 08:25:14;;;;;;;2.70;1.10;;;4.70;98.00;;;;;;5031883;28;20997;-63
2023/03/15 08:27:42;;;;;;;2.47;1.23;;;4.70;98.00;;;;;;5032720;28;21059;-63
2023/03/15 08:30:12;;;;;;;1.30;1.10;;;4.80;98.00;;;;;;5037323;28;20452;-63
2023/03/15 08:32:39;;;;;;;2.00;1.67;;;4.90;98.00;;;;;;5052475;28;20500;-62
2023/03/15 08:35:09;;;;;;;1.53;1.17;;;4.90;98.00;;;;;;5052588;28;20491;-64
2023/03/15 08:37:36;;;;;;;6.97;1.47;;;5.00;98.00;;;;;;5052374;28;20458;-62
2023/03/15 08:40:08;;;;;;;1.43;1.37;;;5.00;98.00;;;;;;5052581;28;20467;-63
2023/03/15 08:42:36;;;;;;;2.80;1.30;;;5.10;98.00;;;;;;5052399;28;20969;-66
2023/03/15 08:45:06;;;;;;;1.60;1.13;;;5.10;98.00;;;;;;5052188;28;20488;-62
2023/03/15 08:47:35;;;;;;;2.67;1.40;;;5.20;98.00;;;;;;5052230;28;20452;-63
2023/03/15 08:50:04;;;;;;;2.70;1.10;;;5.40;98.00;;;;;;5052372;28;20862;-63
2023/03/15 08:52:31;;;;;;;1.40;1.20;;;5.40;98.00;;;;;;5052537;28;20467;-63
2023/03/15 08:54:59;;;;;;;1.50;1.40;;;5.60;98.00;;;;;;5045927;28;20475;-63
2023/03/15 08:57:27;;;;;;;1.50;1.20;;;5.80;98.00;;;;;;5050574;28;20814;-62
2023/03/15 08:59:55;;;;;;;1.37;1.23;;;5.90;98.00;;;;;;5052007;28;21198;-63
2023/03/15 09:02:23;;;;;;;1.33;1.10;;;5.90;98.00;;;;;;5052052;28;20452;-62
2023/03/15 09:04:51;;;;;;;4.50;1.20;;;6.00;98.00;;;;;;5051653;28;20502;-61
2023/03/15 09:07:20;;;;;;;1.50;1.50;;;6.10;98.00;;;;;;5052023;28;20496;-63
2023/03/15 09:09:47;;;;;;;1.43;1.37;;;6.10;98.00;;;;;;5051400;28;20511;-63
2023/03/15 09:12:16;;;;;;;1.80;1.30;;;6.20;98.00;;;;;;5051080;28;20460;-63
2023/03/15 09:14:43;;;;;;;1.90;1.23;;;6.00;98.00;;;;;;5014458;28;20480;-61
2023/03/15 09:17:10;;;;;;;1.70;1.10;;;6.00;98.00;;;;;;5032021;28;20530;-61
2023/03/15 09:19:40;;;;;;;2.17;1.20;;;6.00;98.00;;;;;;5031994;28;20466;-63
2023/03/15 09:22:08;;;;;;;1.30;1.00;;;6.20;98.00;;;;;;5014326;28;20942;-61
2023/03/15 09:24:35;;;;;;;1.40;1.20;;;6.40;98.00;;;;;;5031802;28;20455;-61
2023/03/15 09:27:02;;;;;;;2.87;1.50;;;6.60;98.00;;;;;;5031830;28;20488;-61
2023/03/15 09:29:29;;;;;;;8.43;1.20;;;6.90;98.00;;;;;;5031370;28;20471;-59
2023/03/15 09:31:57;;;;;;;1.30;1.20;;;7.00;98.00;;;;;;5031376;28;20482;-61
2023/03/15 09:34:24;;;;;;;3.03;1.20;;;7.00;98.00;;;;;;5031628;28;20827;-61
2023/03/15 09:36:53;;;;;;;2.33;1.23;;;7.10;98.00;;;;;;5031155;28;20534;-61
2023/03/15 09:39:21;;;;;;;1.60;1.20;;;7.10;98.00;;;;;;5031533;28;20469;-61
2023/03/15 09:41:52;;;;;;;2.63;1.40;;;7.20;98.00;;;;;;5030625;28;20460;-61
2023/03/15 09:44:41;;;;;;;1.83;1.47;;;7.30;98.00;;;;;;5031487;28;20478;-61
2023/03/15 09:47:22;;;;;;;1.30;1.13;;;7.40;98.00;;;;;;5031828;28;20494;-63
2023/03/15 09:49:53;;;;;;;1.20;1.10;;;7.20;98.00;;;;;;5032296;28;20472;-63
2023/03/15 09:52:34;;;;;;;1.50;1.27;;;7.20;98.00;;;;;;5032265;28;20463;-64
2023/03/15 09:55:10;;;;;;;2.23;1.53;;;7.40;98.00;;;;;;5032007;28;20466;-65
2023/03/15 09:57:44;;;;;;;1.30;1.20;;;7.60;98.00;;;;;;5031404;28;20961;-63
2023/03/15 10:00:17;;;;;;;1.10;1.00;;;7.60;98.00;;;;;;5032129;28;20464;-64
2023/03/15 10:02:54;;;;;;;2.37;1.10;;;7.70;98.00;;;;;;5031901;28;20948;-63
2023/03/15 10:05:35;;;;;;;1.40;1.10;;;7.80;98.00;;;;;;5032092;28;20582;-63
2023/03/15 10:08:09;;;;;;;1.30;1.20;;;8.20;98.00;;;;;;4992562;28;21039;-63
2023/03/15 10:10:39;;;;;;;1.80;1.50;;;8.20;98.00;;;;;;4992566;28;20870;-63
2023/03/15 10:13:22;;;;;;;1.40;1.30;;;8.30;98.00;;;;;;4991935;28;20459;-65
2023/03/15 10:16:00;;;;;;;9.83;1.80;;;8.40;98.00;;;;;;4991720;28;20493;-63
2023/03/15 10:18:45;;;;;;;1.33;1.10;;;8.10;98.00;;;;;;4992010;28;20886;-65
2023/03/15 10:21:18;;;;;;;1.57;1.27;;;7.80;98.00;;;;;;4996651;28;20468;-65
2023/03/15 10:23:51;;;;;;;2.33;1.40;;;7.60;98.00;;;;;;4996427;28;20458;-66
2023/03/15 10:26:23;;;;;;;1.20;1.00;;;7.40;98.00;;;;;;5000648;28;20499;-66
2023/03/15 10:28:52;;;;;;;2.30;1.40;;;7.20;98.00;;;;;;5016360;28;20462;-66
2023/03/15 10:31:23;;;;;;;1.20;1.10;;;7.20;98.00;;;;;;5015929;28;20463;-64
2023/03/15 10:33:51;;;;;;;1.27;1.10;;;7.00;98.00;;;;;;5016294;28;20465;-64
2023/03/15 10:36:20;;;;;;;1.50;1.30;;;6.90;98.00;;;;;;5015974;28;20452;-64
2023/03/15 10:38:49;;;;;;;1.23;1.10;;;6.80;98.00;;;;;;5015898;28;20941;-66
2023/03/15 10:41:29;;;;;;;1.10;1.00;;;6.90;98.00;;;;;;5016042;28;20553;-67
2023/03/15 10:44:01;;;;;;;1.30;1.10;;;7.00;98.00;;;;;;5030428;28;20467;-65
2023/03/15 10:46:29;;;;;;;1.30;1.10;;;7.00;98.00;;;;;;5035353;28;21005;-63
2023/03/15 10:48:59;;;;;;;2.70;1.30;;;7.10;98.00;;;;;;5035434;28;20459;-64
2023/03/15 10:51:29;;;;;;;1.20;1.10;;;7.20;98.00;;;;;;5035504;28;20461;-65
2023/03/15 10:54:00;;;;;;;1.93;1.33;;;7.20;98.00;;;;;;5034988;28;20457;-64
2023/03/15 10:56:30;;;;;;;1.37;1.23;;;7.40;98.00;;;;;;5034660;28;20472;-64
2023/03/15 10:59:00;;;;;;;1.40;1.30;;;7.30;98.00;;;;;;5034426;28;20458;-66
2023/03/15 11:01:33;;;;;;;1.67;1.27;;;7.30;98.00;;;;;;5034963;28;20513;-67
2023/03/15 11:04:02;;;;;;;1.60;1.47;;;7.40;98.00;;;;;;5034886;28;20517;-64
2023/03/15 11:06:37;;;;;;;1.80;1.30;;;7.60;98.00;;;;;;5034729;28;20478;-64
2023/03/15 11:09:13;;;;;;;1.40;1.37;;;7.60;98.00;;;;;;5034405;28;20460;-63
2023/03/15 11:12:02;;;;;;;1.73;1.20;;;7.70;98.00;;;;;;5032834;28;20897;-65
2023/03/15 11:14:35;;;;;;;1.30;1.30;;;7.80;98.00;;;;;;5034410;28;20462;-67
2023/03/15 11:17:05;;;;;;;3.93;1.40;;;8.10;98.00;;;;;;5034391;28;20465;-65
2023/03/15 11:19:36;;;;;;;3.67;1.30;;;8.50;98.00;;;;;;5034300;28;20543;-65
2023/03/15 11:22:04;;;;;;;1.30;1.10;;;8.70;97.20;;;;;;5016532;28;20557;-66
2023/03/15 11:24:34;;;;;;;1.17;1.03;;;8.90;96.90;;;;;;5016637;28;20483;-66
2023/03/15 11:27:03;;;;;;;4.07;1.27;;;8.90;95.60;;;;;;5034182;28;20485;-65
2023/03/15 11:29:33;;;;;;;1.43;1.07;;;8.70;94.60;;;;;;5034221;28;20463;-64
2023/03/15 11:32:02;;;;;;;1.30;1.20;;;8.50;94.40;;;;;;5032618;28;21036;-66
2023/03/15 11:34:40;;;;;;;2.43;1.10;;;8.40;96.50;;;;;;5034182;28;20462;-66
2023/03/15 11:37:14;;;;;;;2.47;1.57;;;8.00;96.40;;;;;;5034027;28;20465;-64
2023/03/15 11:39:46;;;;;;;1.67;1.10;;;7.80;97.00;;;;;;5033979;28;20467;-67
2023/03/15 11:42:25;;;;;;;1.57;1.10;;;7.80;98.00;;;;;;5034286;28;20463;-66
2023/03/15 11:44:57;;;;;;;1.40;1.20;;;7.60;97.80;;;;;;5034269;28;20453;-66
2023/03/15 11:47:34;;;;;;;2.17;1.33;;;7.20;98.00;;;;;;5033944;28;20494;-66
2023/03/15 11:50:01;;;;;;;1.20;1.10;;;7.10;98.00;;;;;;5034311;28;20526;-63
2023/03/15 11:52:30;;;;;;;3.10;1.27;;;7.20;98.00;;;;;;5034145;28;20516;-66
2023/03/15 11:55:02;;;;;;;1.30;1.23;;;7.10;98.00;;;;;;5034020;28;20456;-66
2023/03/15 11:57:39;;;;;;;1.10;1.10;;;7.00;98.00;;;;;;5034378;28;20460;-65
2023/03/15 12:00:41;;;;;;;1.47;1.10;;;6.90;98.00;;;;;;5034314;28;20513;-63
2023/03/15 12:03:41;;;;;;;1.20;1.10;;;6.80;98.00;;;;;;5034361;28;20462;-66
2023/03/15 12:06:28;;;;;;;1.20;1.10;;;6.80;98.00;;;;;;5034251;28;20493;-67
2023/03/15 12:08:57;;;;;;;1.67;1.27;;;6.70;98.00;;;;;;5033572;28;20467;-64
2023/03/15 12:11:42;;;;;;;1.20;1.03;;;6.70;98.00;;;;;;5034049;28;20456;-64
2023/03/15 12:14:28;;;;;;;1.50;1.30;;;6.70;98.00;;;;;;5031161;28;20966;-66
2023/03/15 12:17:29;;;;;;;1.20;1.20;;;6.80;98.00;;;;;;5033585;28;20494;-64
2023/03/15 12:19:59;;;;;;;1.20;1.10;;;6.90;98.00;;;;;;5028757;28;21049;-66
2023/03/15 12:22:33;;;;;;;1.47;1.10;;;7.00;98.00;;;;;;5016613;28;20463;-64
2023/03/15 12:25:08;;;;;;;2.20;1.47;;;7.00;98.00;;;;;;5015935;28;20459;-67
2023/03/15 12:27:44;;;;;;;1.83;1.20;;;7.00;98.00;;;;;;5034098;28;20485;-65
2023/03/15 12:30:21;;;;;;;1.77;1.50;;;7.10;98.00;;;;;;5034355;28;20495;-67
2023/03/15 12:32:52;;;;;;;1.70;1.40;;;7.20;98.00;;;;;;5034085;28;20468;-64
2023/03/15 12:35:21;;;;;;;1.70;1.13;;;7.20;98.00;;;;;;5034113;28;20486;-65
2023/03/15 12:37:50;;;;;;;1.90;1.30;;;7.20;98.00;;;;;;5033802;28;20531;-63
2023/03/15 12:40:39;;;;;;;1.30;1.17;;;7.40;98.00;;;;;;5034075;28;20460;-67
2023/03/15 12:43:08;;;;;;;1.30;1.20;;;7.60;98.00;;;;;;5033395;28;20999;-65
2023/03/15 12:45:44;;;;;;;2.43;2.27;;;7.60;98.00;;;;;;5033204;28;20469;-67
2023/03/15 12:48:20;;;;;;;1.47;1.20;;;7.70;98.00;;;;;;5033293;28;20861;-64
2023/03/15 12:50:54;;;;;;;1.20;1.10;;;7.80;98.00;;;;;;5033161;28;20550;-63
2023/03/15 12:53:27;;;;;;;2.80;1.20;;;7.70;98.00;;;;;;5032911;28;20460;-65
2023/03/15 12:55:56;;;;;;;1.93;1.73;;;7.80;98.00;;;;;;5032957;28;20468;-64
2023/03/15 12:58:32;;;;;;;1.60;1.23;;;7.90;98.00;;;;;;5032922;28;20467;-63
2023/03/15 13:01:03;;;;;;;1.27;1.13;;;8.00;98.00;;;;;;5032882;28;20933;-65
2023/03/15 13:03:33;;;;;;;1.30;1.23;;;7.90;98.00;;;;;;5032838;28;20517;-65
2023/03/15 13:06:07;;;;;;;1.60;1.37;;;7.80;98.00;;;;;;5032577;28;20461;-65
2023/03/15 13:08:43;;;;;;;2.33;1.17;;;7.80;98.00;;;;;;5032794;28;20911;-65
2023/03/15 13:11:20;;;;;;;1.50;1.20;;;7.80;98.00;;;;;;5032536;28;20954;-66
2023/03/15 13:14:04;;;;;;;2.33;1.43;;;7.80;98.00;;;;;;5032775;28;20500;-66